aviador You're here:

KLPR Decoded Metar

LORAIN/ELYRIA in OH, USA
Report Time2018-04-23 22:53:00
UTC Time2018-04-23 23:02:38
Flight Rules vfr VFR
WindVRB at 05 kt
Visibility9999 m
Phenomena:N/A
Clouds:Scattered 080 Hf
Expected CloudBase > 6,800 ft AGL from Temp-Dew spread
CeilingNone
Temp20°C (ISA +7)
Dew Point03°C (33% RH)
AAT16.7°C
QNH1021 hPa
Density Alt1,398 ft
Elevation791 ft
Report Wrong Elevation
Raw Report
KLPR 232253Z AUTO VRB05KT 10SM SCT080 20/03 A3014 RMK AO2 SLP207
T02000033=

Extra information for KLPR:More info

Metar Taf Metar & Taf Last 4 Metars F.Rules Stats Wind Profile Meteogram Temp Stats Airport Information Weather charts Add Link Nearby VenuesMetar ALERT Operation Metar Decoded Social comments

AIRNAV info for KLPR